Time;durP1;ratioP1;P1;durP2;ratioP2;P2;SDS_P1;SDS_P2;PMS_P1;PMS_P2;Temp;Humidity;BMP_temperature;BMP_pressure;BME280_temperature;BME280_humidity;BME280_pressure;Samples;Min_cycle;Max_cycle;Signal;HPM_P1;HPM_P2
2022/06/18 00:01:35;;;;;;;9.25;5.90;;;;;;;;;;5050215;28;20086;-75
2022/06/18 00:04:07;;;;;;;11.25;5.75;;;;;;;;;;5049236;28;20436;-75
2022/06/18 00:06:35;;;;;;;9.23;5.65;;;;;;;;;;5034188;28;20095;-75
2022/06/18 00:09:01;;;;;;;8.35;6.15;;;;;;;;;;5050334;28;20106;-75
2022/06/18 00:14:12;;;;;;;8.85;5.85;;;;;;;;;;5049495;28;20051;-75
2022/06/18 00:16:38;;;;;;;10.13;6.40;;;;;;;;;;5050545;28;20429;-75
2022/06/18 00:19:04;;;;;;;8.35;6.53;;;;;;;;;;5050067;28;20039;-75
2022/06/18 00:21:30;;;;;;;9.50;6.40;;;;;;;;;;5051576;28;20040;-75
2022/06/18 00:23:56;;;;;;;8.98;6.60;;;;;;;;;;5050026;28;20081;-75
2022/06/18 00:26:23;;;;;;;11.80;6.78;;;;;;;;;;5033561;28;20048;-75
2022/06/18 00:28:49;;;;;;;10.30;6.82;;;;;;;;;;5017281;28;20062;-75
2022/06/18 00:31:15;;;;;;;9.93;6.60;;;;;;;;;;5049919;28;20045;-75
2022/06/18 00:33:41;;;;;;;8.80;6.72;;;;;;;;;;5049797;28;20095;-75
2022/06/18 00:36:13;;;;;;;10.25;6.97;;;;;;;;;;5050085;28;20056;-75
2022/06/18 00:38:40;;;;;;;8.43;6.38;;;;;;;;;;5050618;28;20481;-75
2022/06/18 00:41:07;;;;;;;8.23;6.60;;;;;;;;;;5033895;28;20032;-75
2022/06/18 00:43:55;;;;;;;10.13;6.97;;;;;;;;;;5033606;28;20394;-75
2022/06/18 00:46:41;;;;;;;12.75;6.90;;;;;;;;;;5037573;28;20045;-74
2022/06/18 00:49:16;;;;;;;12.52;7.32;;;;;;;;;;5051075;28;20045;-75
2022/06/18 00:51:44;;;;;;;11.88;7.68;;;;;;;;;;5054367;28;20114;-74
2022/06/18 00:54:25;;;;;;;11.57;7.30;;;;;;;;;;5036671;28;20052;-75
2022/06/18 00:57:17;;;;;;;12.20;8.30;;;;;;;;;;5054081;28;20041;-75
2022/06/18 00:59:52;;;;;;;11.95;7.60;;;;;;;;;;5040659;28;20616;-77
2022/06/18 01:02:24;;;;;;;9.82;7.15;;;;;;;;;;5065222;28;20128;-76
2022/06/18 01:04:52;;;;;;;10.73;7.63;;;;;;;;;;5061846;28;20044;-76
2022/06/18 01:07:36;;;;;;;10.98;7.65;;;;;;;;;;5070035;28;20040;-75
2022/06/18 01:10:05;;;;;;;9.75;7.80;;;;;;;;;;5066463;28;20047;-77
2022/06/18 01:12:31;;;;;;;10.10;7.68;;;;;;;;;;5053859;28;20385;-74
2022/06/18 01:15:01;;;;;;;12.13;7.97;;;;;;;;;;5056510;28;20560;-74
2022/06/18 01:17:29;;;;;;;11.90;7.88;;;;;;;;;;5046614;28;20050;-74
2022/06/18 01:19:55;;;;;;;13.00;7.90;;;;;;;;;;5074300;28;20051;-75
2022/06/18 01:22:33;;;;;;;10.20;7.78;;;;;;;;;;5073278;28;20044;-75
2022/06/18 01:24:59;;;;;;;9.45;7.63;;;;;;;;;;5071339;28;20047;-75
2022/06/18 01:27:25;;;;;;;13.90;8.35;;;;;;;;;;5064476;28;20079;-75
2022/06/18 01:29:53;;;;;;;11.43;8.60;;;;;;;;;;5067515;28;20033;-75
2022/06/18 01:32:20;;;;;;;11.05;8.13;;;;;;;;;;5073404;28;20036;-75
2022/06/18 01:34:47;;;;;;;10.68;8.20;;;;;;;;;;5073628;28;20132;-75
2022/06/18 01:37:13;;;;;;;13.30;8.50;;;;;;;;;;5064197;28;20047;-75
2022/06/18 01:39:41;;;;;;;10.50;8.10;;;;;;;;;;5074295;28;20040;-75
2022/06/18 01:42:12;;;;;;;9.48;8.18;;;;;;;;;;5074840;28;20074;-75
2022/06/18 01:44:38;;;;;;;11.68;8.20;;;;;;;;;;5073488;28;20041;-75
2022/06/18 01:47:26;;;;;;;13.60;8.77;;;;;;;;;;5064471;28;20073;-75
2022/06/18 01:49:59;;;;;;;11.45;8.10;;;;;;;;;;5058561;28;20033;-75
2022/06/18 01:52:29;;;;;;;9.75;8.02;;;;;;;;;;5048175;28;20044;-75
2022/06/18 01:54:58;;;;;;;13.52;8.10;;;;;;;;;;5074232;28;20052;-75
2022/06/18 01:57:27;;;;;;;12.00;8.73;;;;;;;;;;5070384;28;20028;-75
2022/06/18 01:59:55;;;;;;;14.65;8.73;;;;;;;;;;5072946;28;20036;-75
2022/06/18 02:02:21;;;;;;;12.55;9.55;;;;;;;;;;5046756;28;20044;-75
2022/06/18 02:04:48;;;;;;;13.15;8.98;;;;;;;;;;5052460;28;20509;-75
2022/06/18 02:07:15;;;;;;;12.25;9.30;;;;;;;;;;5051657;28;20041;-75
2022/06/18 02:09:41;;;;;;;12.05;9.52;;;;;;;;;;5060048;28;20489;-75
2022/06/18 02:12:18;;;;;;;12.40;8.57;;;;;;;;;;5073284;28;20036;-75
2022/06/18 02:14:47;;;;;;;13.40;9.73;;;;;;;;;;5056314;28;20047;-75
2022/06/18 02:17:17;;;;;;;15.00;10.48;;;;;;;;;;5041801;28;20041;-74
2022/06/18 02:19:45;;;;;;;14.32;10.60;;;;;;;;;;5057338;28;20041;-75
2022/06/18 02:22:11;;;;;;;13.65;10.30;;;;;;;;;;5073023;28;20439;-75
2022/06/18 02:24:37;;;;;;;15.68;10.70;;;;;;;;;;5082770;28;20504;-75
2022/06/18 02:27:03;;;;;;;13.90;10.85;;;;;;;;;;5063304;28;20041;-74
2022/06/18 02:29:31;;;;;;;13.60;11.00;;;;;;;;;;5042653;28;20561;-74
2022/06/18 02:31:58;;;;;;;16.35;11.27;;;;;;;;;;5060175;28;20123;-75
2022/06/18 02:34:27;;;;;;;16.92;11.50;;;;;;;;;;5066856;28;20040;-75
2022/06/18 02:36:53;;;;;;;14.27;11.05;;;;;;;;;;5070858;28;20044;-75
2022/06/18 02:39:25;;;;;;;19.73;11.98;;;;;;;;;;5049273;28;20068;-75
2022/06/18 02:41:57;;;;;;;17.33;12.68;;;;;;;;;;5061871;28;20034;-75
2022/06/18 02:44:23;;;;;;;13.73;10.10;;;;;;;;;;5071636;28;20036;-75
2022/06/18 02:46:49;;;;;;;16.80;11.68;;;;;;;;;;5072179;28;20056;-75
2022/06/18 02:49:15;;;;;;;14.52;12.13;;;;;;;;;;5071198;28;20052;-75
2022/06/18 02:51:41;;;;;;;16.38;12.18;;;;;;;;;;5069007;28;20094;-75
2022/06/18 02:54:08;;;;;;;16.60;12.07;;;;;;;;;;5071923;28;20064;-75
2022/06/18 02:56:34;;;;;;;17.65;12.15;;;;;;;;;;5072882;28;20124;-74
2022/06/18 02:59:01;;;;;;;13.88;12.02;;;;;;;;;;5071899;28;20040;-75
2022/06/18 03:01:29;;;;;;;19.60;12.52;;;;;;;;;;5024281;28;20045;-75
2022/06/18 03:03:58;;;;;;;17.63;12.40;;;;;;;;;;5045263;28;20044;-74
2022/06/18 03:06:26;;;;;;;20.25;12.20;;;;;;;;;;5071302;28;20041;-75
2022/06/18 03:08:52;;;;;;;17.55;12.85;;;;;;;;;;5054738;28;20040;-75
2022/06/18 03:14:07;;;;;;;18.17;12.35;;;;;;;;;;5071614;28;20055;-74
2022/06/18 03:16:33;;;;;;;15.48;11.70;;;;;;;;;;5071341;28;20040;-75
2022/06/18 03:19:00;;;;;;;19.65;13.20;;;;;;;;;;5041876;28;20123;-75
2022/06/18 03:21:26;;;;;;;24.95;13.32;;;;;;;;;;5064975;28;20068;-75
2022/06/18 03:23:53;;;;;;;19.48;13.27;;;;;;;;;;5051641;28;20069;-75
2022/06/18 03:26:19;;;;;;;21.25;13.93;;;;;;;;;;5069930;28;20127;-74
2022/06/18 03:28:45;;;;;;;24.48;13.07;;;;;;;;;;5072350;28;20384;-75
2022/06/18 03:31:12;;;;;;;18.02;13.18;;;;;;;;;;5051345;28;20041;-75
2022/06/18 03:33:38;;;;;;;21.65;13.52;;;;;;;;;;5056787;28;20040;-75
2022/06/18 03:36:05;;;;;;;21.95;13.77;;;;;;;;;;5049767;28;20056;-75
2022/06/18 03:38:31;;;;;;;23.75;13.38;;;;;;;;;;5064192;28;20041;-74
2022/06/18 03:40:58;;;;;;;24.75;13.90;;;;;;;;;;5050798;28;20045;-75
2022/06/18 03:43:25;;;;;;;23.00;13.98;;;;;;;;;;5062181;28;20036;-75
2022/06/18 03:45:53;;;;;;;17.85;11.40;;;;;;;;;;5070806;28;20146;-75
2022/06/18 03:48:24;;;;;;;24.38;13.43;;;;;;;;;;5070895;28;20032;-75
2022/06/18 03:50:50;;;;;;;28.25;14.52;;;;;;;;;;5053831;28;20086;-75
2022/06/18 03:53:16;;;;;;;23.67;13.23;;;;;;;;;;5066846;28;20044;-75
2022/06/18 03:55:43;;;;;;;22.67;13.60;;;;;;;;;;5072020;28;20036;-75
2022/06/18 03:58:09;;;;;;;24.63;14.32;;;;;;;;;;5072151;28;20444;-75
2022/06/18 04:00:35;;;;;;;24.38;14.45;;;;;;;;;;5066939;28;20041;-75
2022/06/18 04:03:02;;;;;;;25.38;14.02;;;;;;;;;;5034746;28;20033;-75
2022/06/18 04:05:28;;;;;;;21.88;14.27;;;;;;;;;;5050065;28;20486;-75
2022/06/18 04:07:54;;;;;;;26.00;13.55;;;;;;;;;;5033554;28;20048;-75
2022/06/18 04:10:22;;;;;;;24.98;14.48;;;;;;;;;;5063661;28;20070;-74
2022/06/18 04:12:48;;;;;;;26.25;13.68;;;;;;;;;;5053779;28;20453;-75
2022/06/18 04:15:15;;;;;;;24.75;14.00;;;;;;;;;;5066855;28;20546;-75
2022/06/18 04:17:42;;;;;;;23.15;14.35;;;;;;;;;;5053859;28;20040;-75
2022/06/18 04:20:09;;;;;;;20.02;13.95;;;;;;;;;;5087299;28;20131;-75
2022/06/18 04:22:35;;;;;;;24.45;14.48;;;;;;;;;;5070353;28;20674;-75
2022/06/18 04:25:01;;;;;;;24.35;14.75;;;;;;;;;;5031414;28;20033;-75
2022/06/18 04:27:27;;;;;;;19.73;13.35;;;;;;;;;;5039142;28;20037;-75
2022/06/18 04:29:53;;;;;;;20.55;13.85;;;;;;;;;;5053917;28;20044;-75
2022/06/18 04:32:19;;;;;;;24.35;13.82;;;;;;;;;;5075824;28;20043;-75
2022/06/18 04:34:46;;;;;;;22.50;13.38;;;;;;;;;;5055452;28;20496;-75
2022/06/18 04:37:12;;;;;;;19.30;13.50;;;;;;;;;;5066328;28;20052;-75
2022/06/18 04:39:38;;;;;;;21.70;13.48;;;;;;;;;;5074437;28;20119;-75
2022/06/18 04:42:04;;;;;;;26.05;13.98;;;;;;;;;;5072481;28;20050;-75
2022/06/18 04:44:30;;;;;;;26.25;13.80;;;;;;;;;;5064369;28;20041;-75
2022/06/18 04:46:56;;;;;;;22.67;13.45;;;;;;;;;;5059782;28;20049;-75
2022/06/18 04:49:22;;;;;;;20.80;13.15;;;;;;;;;;5054704;28;20072;-75
2022/06/18 04:51:48;;;;;;;24.83;13.13;;;;;;;;;;5061657;28;20041;-75
2022/06/18 04:54:14;;;;;;;22.63;12.70;;;;;;;;;;5074414;28;20041;-75
2022/06/18 04:56:41;;;;;;;20.88;13.20;;;;;;;;;;5062005;28;20033;-74
2022/06/18 04:59:07;;;;;;;21.75;12.68;;;;;;;;;;5074370;28;20047;-74
2022/06/18 05:01:33;;;;;;;24.48;12.38;;;;;;;;;;5067905;28;20068;-74
2022/06/18 05:04:00;;;;;;;21.45;12.40;;;;;;;;;;5070127;28;20093;-75
2022/06/18 05:06:26;;;;;;;18.00;12.40;;;;;;;;;;5060799;28;20043;-75
2022/06/18 05:08:52;;;;;;;18.42;11.32;;;;;;;;;;5054111;28;20123;-75
2022/06/18 05:11:18;;;;;;;21.15;11.10;;;;;;;;;;5063607;28;20064;-75
2022/06/18 05:13:44;;;;;;;19.17;11.68;;;;;;;;;;5067059;28;20108;-75
2022/06/18 05:16:11;;;;;;;18.75;10.90;;;;;;;;;;5073924;28;20036;-75
2022/06/18 05:18:43;;;;;;;15.82;10.50;;;;;;;;;;5048810;28;20531;-75
2022/06/18 05:21:09;;;;;;;23.13;12.35;;;;;;;;;;5057447;28;20119;-75
2022/06/18 05:23:35;;;;;;;19.17;12.05;;;;;;;;;;5068939;28;20048;-75
2022/06/18 05:26:02;;;;;;;21.70;11.65;;;;;;;;;;5056445;28;20041;-75
2022/06/18 05:28:29;;;;;;;19.83;11.00;;;;;;;;;;5054094;28;20080;-75
2022/06/18 05:30:55;;;;;;;20.67;11.40;;;;;;;;;;5068836;28;20047;-75
2022/06/18 05:33:21;;;;;;;20.55;12.38;;;;;;;;;;5071513;28;20412;-75
2022/06/18 05:35:47;;;;;;;21.63;11.48;;;;;;;;;;5073360;28;20395;-74
2022/06/18 05:38:20;;;;;;;17.27;9.57;;;;;;;;;;5052100;28;20539;-74
2022/06/18 05:40:47;;;;;;;17.05;9.73;;;;;;;;;;5056792;28;20045;-74
2022/06/18 05:43:13;;;;;;;17.13;10.50;;;;;;;;;;5043239;28;20060;-75
2022/06/18 05:45:39;;;;;;;21.02;9.40;;;;;;;;;;5051892;28;20079;-74
2022/06/18 05:48:06;;;;;;;18.73;9.25;;;;;;;;;;5053005;28;20037;-74
2022/06/18 05:50:32;;;;;;;15.43;10.05;;;;;;;;;;5035463;28;20037;-74
2022/06/18 05:52:58;;;;;;;22.00;10.45;;;;;;;;;;5051495;28;20543;-74
2022/06/18 05:55:25;;;;;;;18.83;9.85;;;;;;;;;;5031414;28;20048;-74
2022/06/18 05:57:53;;;;;;;16.25;8.75;;;;;;;;;;5054072;28;20048;-74
2022/06/18 06:00:20;;;;;;;15.38;8.68;;;;;;;;;;5054772;28;20429;-74
2022/06/18 06:02:46;;;;;;;15.93;8.32;;;;;;;;;;5052493;28;20052;-74
2022/06/18 06:05:13;;;;;;;16.27;8.07;;;;;;;;;;5052715;28;20068;-74
2022/06/18 06:07:41;;;;;;;13.10;7.53;;;;;;;;;;5051705;28;20045;-74
2022/06/18 06:13:04;;;;;;;15.27;7.65;;;;;;;;;;5051214;28;20056;-74
2022/06/18 06:15:30;;;;;;;14.90;7.15;;;;;;;;;;5052323;28;20041;-75
2022/06/18 06:17:56;;;;;;;18.58;7.32;;;;;;;;;;5052107;28;20083;-74
2022/06/18 06:20:27;;;;;;;15.40;7.95;;;;;;;;;;5052093;28;20044;-75
2022/06/18 06:22:53;;;;;;;20.88;7.10;;;;;;;;;;5051637;28;20051;-75
2022/06/18 06:25:20;;;;;;;15.82;7.30;;;;;;;;;;5086154;28;20041;-75
2022/06/18 06:27:46;;;;;;;14.52;6.90;;;;;;;;;;5052175;28;20041;-75
2022/06/18 06:30:16;;;;;;;12.88;6.45;;;;;;;;;;5051654;28;20155;-75
2022/06/18 06:32:42;;;;;;;11.30;5.40;;;;;;;;;;5035658;28;20384;-75
2022/06/18 06:35:09;;;;;;;12.70;6.20;;;;;;;;;;5051762;28;20087;-75
2022/06/18 06:37:35;;;;;;;12.45;5.65;;;;;;;;;;5052874;28;20037;-75
2022/06/18 06:40:01;;;;;;;12.30;5.40;;;;;;;;;;5052084;28;20053;-75
2022/06/18 06:42:27;;;;;;;9.23;4.78;;;;;;;;;;5053576;28;20051;-75
2022/06/18 06:44:54;;;;;;;12.07;5.20;;;;;;;;;;5051311;28;20041;-75
2022/06/18 06:47:20;;;;;;;9.70;4.30;;;;;;;;;;5051385;28;20045;-75
2022/06/18 06:49:47;;;;;;;10.90;4.65;;;;;;;;;;5051892;28;20060;-75
2022/06/18 06:52:13;;;;;;;6.30;3.50;;;;;;;;;;5050898;28;20049;-75
2022/06/18 06:54:39;;;;;;;11.65;4.72;;;;;;;;;;5051946;28;20044;-75
2022/06/18 06:57:21;;;;;;;7.63;3.88;;;;;;;;;;5056485;28;20132;-75
2022/06/18 06:59:47;;;;;;;7.03;3.70;;;;;;;;;;5045669;28;20049;-74
2022/06/18 07:02:15;;;;;;;7.50;3.78;;;;;;;;;;5034934;28;20077;-74
2022/06/18 07:04:41;;;;;;;7.97;3.42;;;;;;;;;;5052783;28;20505;-74
2022/06/18 07:07:09;;;;;;;9.20;3.40;;;;;;;;;;5051637;28;20086;-75
2022/06/18 07:09:35;;;;;;;6.55;2.83;;;;;;;;;;5058050;28;20032;-75
2022/06/18 07:12:01;;;;;;;8.15;3.10;;;;;;;;;;5042662;28;20122;-74
2022/06/18 07:14:27;;;;;;;7.35;2.92;;;;;;;;;;5055318;28;20047;-73
2022/06/18 07:16:56;;;;;;;8.43;3.03;;;;;;;;;;5047970;28;20397;-73
2022/06/18 07:19:22;;;;;;;6.07;3.20;;;;;;;;;;5070481;28;20485;-74
2022/06/18 07:21:52;;;;;;;7.40;3.10;;;;;;;;;;5049708;28;20433;-74
2022/06/18 07:24:18;;;;;;;7.43;3.10;;;;;;;;;;5063952;28;20041;-75
2022/06/18 07:26:45;;;;;;;7.60;3.17;;;;;;;;;;5054982;28;20037;-75
2022/06/18 07:29:11;;;;;;;6.05;2.88;;;;;;;;;;5087134;28;20045;-75
2022/06/18 07:31:37;;;;;;;7.30;3.00;;;;;;;;;;5052742;28;20118;-75
2022/06/18 07:34:07;;;;;;;6.15;2.90;;;;;;;;;;5064109;28;20044;-75
2022/06/18 07:36:34;;;;;;;6.60;3.00;;;;;;;;;;5056232;28;20040;-74
2022/06/18 07:39:01;;;;;;;6.40;2.65;;;;;;;;;;5055343;28;20049;-73
2022/06/18 07:41:31;;;;;;;7.15;2.70;;;;;;;;;;5050765;28;20044;-74
2022/06/18 07:43:58;;;;;;;7.10;2.72;;;;;;;;;;5033979;28;20111;-75
2022/06/18 07:46:25;;;;;;;6.80;3.00;;;;;;;;;;5067337;28;20480;-75
2022/06/18 07:48:52;;;;;;;8.50;3.20;;;;;;;;;;5050903;28;20041;-75
2022/06/18 07:51:18;;;;;;;6.32;2.58;;;;;;;;;;5034027;28;20037;-75
2022/06/18 07:53:44;;;;;;;5.75;2.63;;;;;;;;;;5051237;28;20037;-74
2022/06/18 07:56:13;;;;;;;5.75;2.60;;;;;;;;;;5033467;28;20052;-75
2022/06/18 07:58:39;;;;;;;7.95;2.55;;;;;;;;;;5049775;28;20052;-75
2022/06/18 08:01:05;;;;;;;6.45;2.60;;;;;;;;;;5051575;28;20124;-74
2022/06/18 08:03:31;;;;;;;6.80;2.70;;;;;;;;;;5052445;28;20052;-74
2022/06/18 08:05:57;;;;;;;8.00;2.88;;;;;;;;;;5083862;28;20040;-75
2022/06/18 08:08:23;;;;;;;5.72;2.83;;;;;;;;;;5049542;28;20116;-75
2022/06/18 08:10:52;;;;;;;5.15;2.83;;;;;;;;;;5067720;28;20481;-74
2022/06/18 08:13:18;;;;;;;5.78;2.50;;;;;;;;;;5069828;28;20076;-75
2022/06/18 08:15:45;;;;;;;7.18;2.83;;;;;;;;;;5070937;28;20432;-74
2022/06/18 08:18:11;;;;;;;4.72;2.33;;;;;;;;;;5062262;28;20040;-74
2022/06/18 08:20:37;;;;;;;7.85;2.50;;;;;;;;;;5071066;28;20048;-74
2022/06/18 08:23:04;;;;;;;6.13;2.53;;;;;;;;;;5053613;28;20041;-75
2022/06/18 08:25:31;;;;;;;5.45;2.60;;;;;;;;;;5070740;28;20519;-75
2022/06/18 08:28:00;;;;;;;6.85;2.60;;;;;;;;;;5063866;28;20037;-73
2022/06/18 08:30:26;;;;;;;9.77;3.00;;;;;;;;;;5094096;28;20131;-74
2022/06/18 08:32:52;;;;;;;6.72;3.13;;;;;;;;;;5070569;28;20086;-74
2022/06/18 08:35:19;;;;;;;6.90;2.63;;;;;;;;;;5070672;28;20437;-74
2022/06/18 08:37:45;;;;;;;5.25;2.58;;;;;;;;;;5053955;28;20074;-73
2022/06/18 08:40:35;;;;;;;7.32;2.60;;;;;;;;;;5070424;28;20401;-74
2022/06/18 08:43:07;;;;;;;6.72;2.38;;;;;;;;;;5070308;28;20066;-74
2022/06/18 08:45:36;;;;;;;4.30;2.20;;;;;;;;;;5070592;28;20455;-74
2022/06/18 08:48:05;;;;;;;4.93;1.92;;;;;;;;;;5070181;28;20045;-74
2022/06/18 08:50:43;;;;;;;5.53;2.20;;;;;;;;;;5070510;28;20041;-74
2022/06/18 08:53:15;;;;;;;3.55;1.80;;;;;;;;;;5070227;28;20481;-74
2022/06/18 08:56:00;;;;;;;6.88;2.30;;;;;;;;;;5070435;28;20071;-73
2022/06/18 08:58:33;;;;;;;5.90;1.95;;;;;;;;;;5069617;28;20047;-74
2022/06/18 09:01:05;;;;;;;4.28;2.13;;;;;;;;;;5104335;28;20052;-74
2022/06/18 09:03:41;;;;;;;4.35;1.80;;;;;;;;;;5069889;28;20459;-74
2022/06/18 09:06:14;;;;;;;4.88;2.08;;;;;;;;;;5054084;28;20052;-74
2022/06/18 09:08:49;;;;;;;6.50;2.00;;;;;;;;;;5071667;28;20076;-73
2022/06/18 09:11:19;;;;;;;6.82;1.90;;;;;;;;;;5056197;28;20043;-74
2022/06/18 09:14:04;;;;;;;3.80;1.58;;;;;;;;;;5073727;28;20128;-74
2022/06/18 09:16:51;;;;;;;4.05;2.00;;;;;;;;;;5066208;28;20047;-74
2022/06/18 09:19:21;;;;;;;5.85;1.50;;;;;;;;;;5056820;28;20048;-74
2022/06/18 09:21:52;;;;;;;4.25;1.55;;;;;;;;;;5074010;28;20131;-74
2022/06/18 09:24:22;;;;;;;3.58;1.73;;;;;;;;;;5073430;28;20044;-74
2022/06/18 09:26:50;;;;;;;2.65;1.30;;;;;;;;;;5074316;28;20033;-74
2022/06/18 09:29:35;;;;;;;4.30;1.45;;;;;;;;;;5070041;28;20047;-74
2022/06/18 09:32:21;;;;;;;2.30;1.15;;;;;;;;;;5075285;28;20090;-74
2022/06/18 09:35:08;;;;;;;3.05;1.35;;;;;;;;;;5073139;28;20080;-74
2022/06/18 09:37:40;;;;;;;5.57;1.38;;;;;;;;;;5073462;28;20052;-74
2022/06/18 09:40:12;;;;;;;4.57;1.30;;;;;;;;;;5073902;28;20046;-74
2022/06/18 09:42:40;;;;;;;2.75;1.20;;;;;;;;;;5073284;28;20076;-74
2022/06/18 09:45:17;;;;;;;3.35;1.10;;;;;;;;;;5072636;28;20090;-74
2022/06/18 09:47:47;;;;;;;3.00;1.30;;;;;;;;;;5061190;28;20045;-74
2022/06/18 09:50:17;;;;;;;3.03;1.40;;;;;;;;;;5072766;28;20538;-74
2022/06/18 09:52:45;;;;;;;2.78;1.20;;;;;;;;;;5073660;28;20044;-74
2022/06/18 09:55:25;;;;;;;5.45;1.13;;;;;;;;;;5057063;28;20048;-74
2022/06/18 09:57:53;;;;;;;2.88;1.10;;;;;;;;;;5074467;28;20492;-73
2022/06/18 10:00:25;;;;;;;3.97;1.27;;;;;;;;;;5072436;28;20063;-73
2022/06/18 10:02:54;;;;;;;5.70;1.25;;;;;;;;;;5073029;28;20071;-73
2022/06/18 10:08:19;;;;;;;2.63;1.42;;;;;;;;;;5072537;28;20071;-74
2022/06/18 10:11:07;;;;;;;3.22;1.20;;;;;;;;;;5072932;28;20488;-73
2022/06/18 10:13:35;;;;;;;2.83;1.30;;;;;;;;;;5072555;28;20048;-74
2022/06/18 10:16:07;;;;;;;3.92;1.10;;;;;;;;;;5106561;28;20048;-74
2022/06/18 10:18:41;;;;;;;3.53;1.30;;;;;;;;;;5073754;28;20040;-73
2022/06/18 10:21:13;;;;;;;2.80;1.30;;;;;;;;;;5072359;28;20520;-73
2022/06/18 10:23:45;;;;;;;3.13;1.30;;;;;;;;;;5055041;28;20044;-74
2022/06/18 10:26:40;;;;;;;3.40;1.20;;;;;;;;;;5072312;28;20512;-73
2022/06/18 10:29:25;;;;;;;2.67;1.20;;;;;;;;;;5061295;28;20083;-74
2022/06/18 10:31:51;;;;;;;7.40;1.30;;;;;;;;;;5048526;28;20037;-73
2022/06/18 10:34:29;;;;;;;3.30;1.30;;;;;;;;;;5055853;28;20098;-73
2022/06/18 10:37:02;;;;;;;4.28;1.33;;;;;;;;;;5072492;28;20032;-73
2022/06/18 10:39:28;;;;;;;3.63;1.27;;;;;;;;;;5072176;28;20043;-73
2022/06/18 10:41:57;;;;;;;2.33;1.20;;;;;;;;;;5073658;28;20067;-73
2022/06/18 10:44:42;;;;;;;2.80;1.17;;;;;;;;;;5071637;28;20071;-74
2022/06/18 10:47:11;;;;;;;3.72;1.25;;;;;;;;;;5049576;28;20382;-74
2022/06/18 10:49:40;;;;;;;3.90;1.30;;;;;;;;;;5072461;28;20048;-73
2022/06/18 10:52:17;;;;;;;2.97;1.30;;;;;;;;;;5056099;28;20036;-73
2022/06/18 10:54:43;;;;;;;3.55;1.27;;;;;;;;;;5071565;28;20048;-74
2022/06/18 10:57:21;;;;;;;2.97;1.35;;;;;;;;;;5072080;28;20045;-74
2022/06/18 10:59:47;;;;;;;3.17;1.30;;;;;;;;;;5071922;28;20425;-73
2022/06/18 11:02:18;;;;;;;3.20;1.33;;;;;;;;;;5071883;28;20044;-73
2022/06/18 11:04:52;;;;;;;5.03;1.55;;;;;;;;;;5071295;28;20070;-74
2022/06/18 11:07:21;;;;;;;3.33;1.27;;;;;;;;;;5072195;28;20082;-73
2022/06/18 11:09:47;;;;;;;3.22;1.40;;;;;;;;;;5071338;28;20094;-73
2022/06/18 11:12:25;;;;;;;5.38;1.33;;;;;;;;;;5055008;28;20044;-73
2022/06/18 11:14:51;;;;;;;4.80;1.50;;;;;;;;;;5072817;28;20040;-73
2022/06/18 11:17:22;;;;;;;4.45;1.45;;;;;;;;;;5072830;28;20071;-74
2022/06/18 11:19:51;;;;;;;5.30;1.38;;;;;;;;;;5071766;28;20119;-73
2022/06/18 11:22:27;;;;;;;4.10;1.30;;;;;;;;;;5055089;28;20431;-73
2022/06/18 11:24:58;;;;;;;3.38;1.48;;;;;;;;;;5046440;28;20115;-74
2022/06/18 11:27:28;;;;;;;4.72;1.58;;;;;;;;;;5071448;28;20048;-74
2022/06/18 11:29:55;;;;;;;3.65;1.40;;;;;;;;;;5069586;28;20453;-74
2022/06/18 11:32:23;;;;;;;3.72;1.30;;;;;;;;;;5072610;28;20036;-74
2022/06/18 11:34:52;;;;;;;6.55;1.45;;;;;;;;;;5070679;28;20082;-74
2022/06/18 11:37:26;;;;;;;3.28;1.50;;;;;;;;;;5071419;28;20044;-74
2022/06/18 11:39:53;;;;;;;3.43;1.30;;;;;;;;;;5056966;28;20071;-74
2022/06/18 11:42:38;;;;;;;3.35;1.48;;;;;;;;;;5072218;28;20086;-74
2022/06/18 11:45:08;;;;;;;3.67;1.15;;;;;;;;;;5071580;28;20135;-74
2022/06/18 11:47:36;;;;;;;3.47;1.25;;;;;;;;;;5070567;28;20036;-74
2022/06/18 11:50:06;;;;;;;2.42;1.00;;;;;;;;;;5071393;28;20068;-74
2022/06/18 11:52:35;;;;;;;3.05;1.40;;;;;;;;;;5070505;28;20040;-74
2022/06/18 11:55:22;;;;;;;5.75;1.10;;;;;;;;;;5071810;28;21639;-74
2022/06/18 11:57:49;;;;;;;3.30;1.20;;;;;;;;;;5070953;28;20482;-74
2022/06/18 12:00:18;;;;;;;2.85;1.63;;;;;;;;;;5071346;28;20371;-74
2022/06/18 12:03:11;;;;;;;3.42;1.10;;;;;;;;;;5070433;28;20072;-74
2022/06/18 12:05:45;;;;;;;3.60;1.20;;;;;;;;;;5027415;28;20130;-74
2022/06/18 12:08:15;;;;;;;3.78;1.30;;;;;;;;;;5072529;28;20043;-74
2022/06/18 12:10:51;;;;;;;3.90;1.10;;;;;;;;;;5072121;28;20048;-74
2022/06/18 12:13:35;;;;;;;4.50;1.20;;;;;;;;;;5070937;28;20044;-74
2022/06/18 12:16:36;;;;;;;2.35;1.20;;;;;;;;;;5070574;28;20115;-74
2022/06/18 12:19:24;;;;;;;3.63;1.40;;;;;;;;;;5060323;28;20141;-74
2022/06/18 12:22:04;;;;;;;4.40;1.27;;;;;;;;;;5070501;28;20504;-74
2022/06/18 12:24:44;;;;;;;2.30;1.10;;;;;;;;;;5070539;28;20055;-74
2022/06/18 12:27:15;;;;;;;3.40;1.20;;;;;;;;;;5070516;28;20111;-74
2022/06/18 12:29:47;;;;;;;3.13;1.20;;;;;;;;;;5067851;28;20404;-74
2022/06/18 12:32:24;;;;;;;3.53;1.38;;;;;;;;;;5070605;28;20040;-74
2022/06/18 12:34:50;;;;;;;3.58;1.20;;;;;;;;;;5069953;28;20048;-74
2022/06/18 12:37:35;;;;;;;2.80;1.10;;;;;;;;;;5070781;28;20058;-74
2022/06/18 12:40:09;;;;;;;5.30;1.20;;;;;;;;;;5070672;28;20048;-74
2022/06/18 12:42:35;;;;;;;3.15;1.23;;;;;;;;;;5053759;28;20515;-74
2022/06/18 12:45:01;;;;;;;2.35;0.90;;;;;;;;;;5070843;28;20052;-74
2022/06/18 12:47:30;;;;;;;3.33;1.10;;;;;;;;;;5074655;28;20052;-74
2022/06/18 12:50:15;;;;;;;2.55;0.90;;;;;;;;;;5075136;28;20048;-74
2022/06/18 12:52:50;;;;;;;3.08;1.00;;;;;;;;;;5074350;28;20512;-74
2022/06/18 12:55:29;;;;;;;3.03;1.02;;;;;;;;;;5074333;28;20489;-74
2022/06/18 12:58:04;;;;;;;4.07;1.10;;;;;;;;;;5074053;28;20050;-74
2022/06/18 13:00:30;;;;;;;;;;;;;;;;;;5108741;28;20113;-74
2022/06/18 13:03:12;;;;;;;3.45;1.08;;;;;;;;;;5074046;28;20300;-74
2022/06/18 13:05:42;;;;;;;4.10;1.10;;;;;;;;;;5045903;28;20051;-74
2022/06/18 13:08:15;;;;;;;3.13;1.15;;;;;;;;;;5057805;28;20485;-74
2022/06/18 13:10:46;;;;;;;3.50;1.10;;;;;;;;;;5074014;28;20044;-74
2022/06/18 13:13:15;;;;;;;3.15;0.90;;;;;;;;;;5057638;28;20041;-74
2022/06/18 13:15:44;;;;;;;1.95;0.90;;;;;;;;;;5074869;28;20047;-74
2022/06/18 13:18:16;;;;;;;1.80;0.80;;;;;;;;;;5074102;28;20075;-74
2022/06/18 13:20:44;;;;;;;2.70;0.77;;;;;;;;;;5056748;28;20036;-74
2022/06/18 13:28:53;;;;;;;3.72;0.90;;;;;;;;;;5073413;28;20045;-74
2022/06/18 13:31:38;;;;;;;3.28;1.00;;;;;;;;;;5103003;28;20036;-74
2022/06/18 13:34:08;;;;;;;3.67;0.90;;;;;;;;;;5074522;28;20063;-74
2022/06/18 13:36:34;;;;;;;3.55;1.02;;;;;;;;;;5073936;28;20033;-74
2022/06/18 13:39:19;;;;;;;2.42;0.88;;;;;;;;;;5074870;28;20451;-74
2022/06/18 13:41:48;;;;;;;4.05;1.05;;;;;;;;;;5073198;28;20040;-74
2022/06/18 13:44:18;;;;;;;3.10;0.90;;;;;;;;;;5073390;28;20048;-75
2022/06/18 13:46:44;;;;;;;4.35;1.40;;;;;;;;;;5056193;28;20048;-74
2022/06/18 13:49:29;;;;;;;2.35;1.02;;;;;;;;;;5073351;28;20048;-74
2022/06/18 13:51:57;;;;;;;5.50;1.33;;;;;;;;;;5072781;28;20032;-74
2022/06/18 13:54:23;;;;;;;3.65;1.05;;;;;;;;;;5073265;28;20052;-74
2022/06/18 13:56:58;;;;;;;3.83;1.17;;;;;;;;;;5071475;28;20033;-74
2022/06/18 13:59:24;;;;;;;3.15;1.02;;;;;;;;;;5078850;28;20051;-74
2022/06/18 14:01:52;;;;;;;5.47;1.20;;;;;;;;;;5073198;28;20048;-74
2022/06/18 14:04:32;;;;;;;10.18;1.52;;;;;;;;;;5072977;28;20044;-74
2022/06/18 14:07:00;;;;;;;5.47;1.27;;;;;;;;;;5072671;28;20123;-74
2022/06/18 14:09:28;;;;;;;3.42;1.05;;;;;;;;;;5056396;28;20487;-74
2022/06/18 14:12:05;;;;;;;6.63;1.20;;;;;;;;;;5072644;28;20045;-74
2022/06/18 14:14:36;;;;;;;4.45;1.35;;;;;;;;;;5074104;28;20374;-74
2022/06/18 14:17:16;;;;;;;3.17;1.00;;;;;;;;;;5072487;28;20082;-73
2022/06/18 14:19:44;;;;;;;5.47;1.40;;;;;;;;;;5072990;28;20041;-74
2022/06/18 14:22:16;;;;;;;4.38;1.33;;;;;;;;;;5072408;28;20033;-74
2022/06/18 14:24:44;;;;;;;4.82;1.20;;;;;;;;;;5072380;28;20043;-74
2022/06/18 14:27:24;;;;;;;4.22;1.15;;;;;;;;;;5072405;28;20485;-74
2022/06/18 14:29:50;;;;;;;5.72;1.38;;;;;;;;;;5068499;28;20037;-74
2022/06/18 14:32:37;;;;;;;6.93;1.70;;;;;;;;;;5072777;28;20036;-74
2022/06/18 14:35:09;;;;;;;4.88;1.45;;;;;;;;;;5065059;28;20056;-74
2022/06/18 14:37:40;;;;;;;5.65;1.70;;;;;;;;;;5072358;28;20051;-74
2022/06/18 14:40:07;;;;;;;6.15;1.60;;;;;;;;;;5067467;28;20052;-74
2022/06/18 14:42:42;;;;;;;5.00;1.30;;;;;;;;;;5064702;28;20126;-74
2022/06/18 14:45:09;;;;;;;5.50;1.50;;;;;;;;;;5055315;28;20536;-74
2022/06/18 14:47:53;;;;;;;5.70;1.50;;;;;;;;;;5072504;28;20409;-74
2022/06/18 14:50:34;;;;;;;8.93;1.67;;;;;;;;;;5044745;28;20434;-74
2022/06/18 14:53:16;;;;;;;6.55;1.50;;;;;;;;;;5071796;28;20485;-74
2022/06/18 14:56:01;;;;;;;7.53;1.60;;;;;;;;;;5072147;28;20064;-74
2022/06/18 14:58:39;;;;;;;8.55;1.77;;;;;;;;;;5055519;28;20033;-74
2022/06/18 15:01:10;;;;;;;5.75;2.05;;;;;;;;;;5071663;28;20041;-74
2022/06/18 15:03:44;;;;;;;8.48;1.77;;;;;;;;;;5071898;28;20055;-74
2022/06/18 15:06:12;;;;;;;9.68;1.88;;;;;;;;;;5071145;28;20044;-74
2022/06/18 15:08:58;;;;;;;7.40;1.60;;;;;;;;;;5054811;28;20040;-74
2022/06/18 15:11:26;;;;;;;5.57;1.42;;;;;;;;;;5072993;28;20393;-74